createdAt,value
2023-03-13T00:00:52.008Z,9.27
2023-03-13T00:03:19.187Z,9.26
2023-03-13T00:05:45.999Z,9.24
2023-03-13T00:08:13.152Z,9.26
2023-03-13T00:10:40.520Z,9.21
2023-03-13T00:13:08.029Z,9.26
2023-03-13T00:15:34.972Z,9.28
2023-03-13T00:18:02.057Z,9.28
2023-03-13T00:20:29.604Z,9.28
2023-03-13T00:22:56.643Z,9.27
2023-03-13T00:25:23.699Z,9.26
2023-03-13T00:27:50.790Z,9.26
2023-03-13T00:30:17.854Z,9.28
2023-03-13T00:32:46.319Z,9.26
2023-03-13T00:35:13.696Z,9.26
2023-03-13T00:37:40.765Z,9.24
2023-03-13T00:40:08.951Z,9.27
2023-03-13T00:42:36.374Z,9.25
2023-03-13T00:45:03.736Z,9.27
2023-03-13T00:47:30.863Z,9.28
2023-03-13T00:49:57.599Z,9.25
2023-03-13T00:52:25.047Z,9.28
2023-03-13T00:54:51.900Z,9.26
2023-03-13T00:57:18.957Z,9.28
2023-03-13T00:59:45.709Z,9.25
2023-03-13T01:02:12.889Z,9.24
2023-03-13T01:04:39.781Z,9.27
2023-03-13T01:07:06.388Z,9.28
2023-03-13T01:09:33.645Z,9.25
2023-03-13T01:12:00.453Z,9.27
2023-03-13T01:14:27.547Z,9.24
2023-03-13T01:16:54.335Z,9.23
2023-03-13T01:19:21.391Z,9.20
2023-03-13T01:21:48.425Z,9.24
2023-03-13T01:24:16.876Z,9.25
2023-03-13T01:26:43.719Z,9.27
2023-03-13T01:29:10.805Z,9.25
2023-03-13T01:31:37.695Z,9.23
2023-03-13T01:34:05.276Z,9.23
2023-03-13T01:36:32.093Z,9.23
2023-03-13T01:39:00.127Z,9.25
2023-03-13T01:41:27.382Z,9.28
2023-03-13T01:43:55.618Z,9.24
2023-03-13T01:46:27.810Z,9.27
2023-03-13T01:49:14.979Z,9.28
2023-03-13T01:51:48.126Z,9.29
2023-03-13T01:54:27.548Z,9.26
2023-03-13T01:56:55.605Z,9.27
2023-03-13T01:59:27.040Z,9.27
2023-03-13T02:01:55.591Z,9.28
2023-03-13T02:04:22.828Z,9.28
2023-03-13T02:06:50.796Z,9.29
2023-03-13T02:09:22.941Z,9.27
2023-03-13T02:12:10.141Z,9.31
2023-03-13T02:14:38.314Z,9.34
2023-03-13T02:17:05.723Z,9.32
2023-03-13T02:19:38.300Z,9.32
2023-03-13T02:22:26.428Z,9.29
2023-03-13T02:25:05.593Z,9.32
2023-03-13T02:27:32.333Z,9.37
2023-03-13T02:29:59.673Z,9.32
2023-03-13T02:32:27.377Z,9.34
2023-03-13T02:34:56.401Z,9.36
2023-03-13T02:37:23.813Z,9.39
2023-03-13T02:39:50.857Z,9.38
2023-03-13T02:42:18.649Z,9.37
2023-03-13T02:44:46.615Z,9.38
2023-03-13T02:47:18.443Z,9.37
2023-03-13T02:49:45.477Z,9.39
2023-03-13T02:52:24.959Z,9.41
2023-03-13T02:54:55.185Z,9.38
2023-03-13T02:57:22.022Z,9.37
2023-03-13T02:59:49.082Z,9.39
2023-03-13T03:02:15.910Z,9.40
2023-03-13T03:04:43.006Z,9.39
2023-03-13T03:07:09.750Z,9.41
2023-03-13T03:09:36.821Z,9.45
2023-03-13T03:12:03.693Z,9.41
2023-03-13T03:14:31.072Z,9.41
2023-03-13T03:16:57.857Z,9.38
2023-03-13T03:19:25.119Z,9.42
2023-03-13T03:21:51.870Z,9.43
2023-03-13T03:24:18.933Z,9.43
2023-03-13T03:26:45.893Z,9.45
2023-03-13T03:29:12.973Z,9.45
2023-03-13T03:31:39.787Z,9.45
2023-03-13T03:34:06.880Z,9.47
2023-03-13T03:36:33.665Z,9.47
2023-03-13T03:39:00.783Z,9.50
2023-03-13T03:41:27.546Z,9.49
2023-03-13T03:43:54.698Z,9.51
2023-03-13T03:46:21.546Z,9.52
2023-03-13T03:48:48.654Z,9.50
2023-03-13T03:51:15.436Z,9.55
2023-03-13T03:53:42.766Z,9.53
2023-03-13T03:56:09.589Z,9.53
2023-03-13T03:58:36.674Z,9.53
2023-03-13T04:01:03.819Z,9.56
2023-03-13T04:03:31.032Z,9.56
2023-03-13T04:05:57.900Z,9.54
2023-03-13T04:08:25.011Z,9.61
2023-03-13T04:10:51.965Z,9.57
2023-03-13T04:13:19.029Z,9.56
2023-03-13T04:15:45.858Z,9.59
2023-03-13T04:18:13.040Z,9.64
2023-03-13T04:20:39.859Z,9.57
2023-03-13T04:23:06.960Z,9.53
2023-03-13T04:25:33.756Z,9.53
2023-03-13T04:28:00.825Z,9.55
2023-03-13T04:30:27.738Z,9.61
2023-03-13T04:32:54.949Z,9.61
2023-03-13T04:35:21.772Z,9.63
2023-03-13T04:37:48.883Z,9.66
2023-03-13T04:40:15.723Z,9.56
2023-03-13T04:42:42.842Z,9.59
2023-03-13T04:45:12.886Z,9.54
2023-03-13T04:47:40.024Z,9.56
2023-03-13T04:50:07.090Z,9.63
2023-03-13T04:52:34.182Z,9.62
2023-03-13T04:55:01.017Z,9.59
2023-03-13T04:57:28.228Z,9.59
2023-03-13T04:59:55.080Z,9.60
2023-03-13T05:02:22.268Z,9.61
2023-03-13T05:04:51.139Z,9.59
2023-03-13T05:07:19.229Z,9.65
2023-03-13T05:09:45.984Z,9.57
2023-03-13T05:12:13.059Z,9.55
2023-03-13T05:14:39.813Z,9.60
2023-03-13T05:17:06.927Z,9.58
2023-03-13T05:19:33.739Z,9.64
2023-03-13T05:22:00.798Z,9.69
2023-03-13T05:24:27.599Z,9.62
2023-03-13T05:26:54.642Z,9.64
2023-03-13T05:29:21.428Z,9.62
2023-03-13T05:31:48.490Z,9.63
2023-03-13T05:34:15.287Z,9.60
2023-03-13T05:36:42.360Z,9.59
2023-03-13T05:39:09.178Z,9.62
2023-03-13T05:41:36.256Z,9.58
2023-03-13T05:44:03.030Z,9.59
2023-03-13T05:46:31.094Z,9.58
2023-03-13T05:48:57.892Z,9.58
2023-03-13T05:51:25.018Z,9.59
2023-03-13T05:53:51.725Z,9.66
2023-03-13T05:56:18.766Z,9.70
2023-03-13T05:58:45.520Z,9.74
2023-03-13T06:01:13.260Z,9.71
2023-03-13T06:03:40.230Z,9.70
2023-03-13T06:06:07.633Z,9.72
2023-03-13T06:08:34.409Z,9.69
2023-03-13T06:11:02.080Z,9.71
2023-03-13T06:13:29.113Z,9.74
2023-03-13T06:15:57.020Z,9.73
2023-03-13T06:18:23.854Z,9.77
2023-03-13T06:20:57.988Z,9.77
2023-03-13T06:23:24.932Z,9.79
2023-03-13T06:25:52.037Z,9.77
2023-03-13T06:28:18.804Z,9.76
2023-03-13T06:30:45.856Z,9.76
2023-03-13T06:33:12.856Z,9.76
2023-03-13T06:35:55.077Z,9.78
2023-03-13T06:38:24.465Z,9.83
2023-03-13T06:40:51.683Z,9.85
2023-03-13T06:43:18.795Z,9.87
2023-03-13T06:45:45.995Z,9.92
2023-03-13T06:48:12.782Z,9.93
2023-03-13T06:50:40.315Z,9.96
2023-03-13T06:53:07.201Z,9.98
2023-03-13T06:55:34.270Z,10.02
2023-03-13T06:58:01.043Z,10.05
2023-03-13T07:00:28.295Z,10.06
2023-03-13T07:02:55.468Z,10.08
2023-03-13T07:05:22.669Z,10.10
2023-03-13T07:07:49.465Z,10.12
2023-03-13T07:10:16.811Z,10.17
2023-03-13T07:12:44.545Z,10.20
2023-03-13T07:15:11.702Z,10.26
2023-03-13T07:17:38.538Z,10.29
2023-03-13T07:20:07.550Z,10.30
2023-03-13T07:22:34.311Z,10.37
2023-03-13T07:25:01.488Z,10.43
2023-03-13T07:27:28.401Z,10.48
2023-03-13T07:29:55.528Z,10.51
2023-03-13T07:32:22.632Z,10.58
2023-03-13T07:34:49.826Z,10.66
2023-03-13T07:37:16.808Z,10.72
2023-03-13T07:39:44.051Z,10.77
2023-03-13T07:42:11.926Z,10.85
2023-03-13T07:44:38.999Z,10.87
2023-03-13T07:47:06.846Z,10.95
2023-03-13T07:49:36.018Z,11.00
2023-03-13T07:52:02.789Z,11.05
2023-03-13T07:54:29.853Z,11.11
2023-03-13T07:56:56.607Z,11.20
2023-03-13T07:59:23.719Z,11.23
2023-03-13T08:01:50.615Z,11.31
2023-03-13T08:04:17.730Z,11.37
2023-03-13T08:06:44.483Z,11.42
2023-03-13T08:09:11.624Z,11.52
2023-03-13T08:11:40.343Z,11.63
2023-03-13T08:14:07.482Z,11.66
2023-03-13T08:16:34.942Z,11.69
2023-03-13T08:19:05.124Z,11.75
2023-03-13T08:21:33.850Z,11.77
2023-03-13T08:24:04.999Z,11.82
2023-03-13T08:26:31.900Z,11.84
2023-03-13T08:29:00.472Z,11.92
2023-03-13T08:31:32.010Z,12.00
2023-03-13T08:33:59.505Z,12.06
2023-03-13T08:36:34.105Z,12.17
2023-03-13T08:39:03.739Z,12.17
2023-03-13T08:41:32.342Z,12.26
2023-03-13T08:43:59.472Z,12.32
2023-03-13T08:46:26.439Z,12.43
2023-03-13T08:48:54.444Z,12.42
2023-03-13T08:51:23.045Z,12.44
2023-03-13T08:53:50.397Z,12.54
2023-03-13T08:56:19.386Z,12.52
2023-03-13T08:58:53.644Z,12.66
2023-03-13T09:01:21.010Z,12.71
2023-03-13T09:03:48.142Z,12.74
2023-03-13T09:06:14.982Z,12.77
2023-03-13T09:08:42.107Z,12.87
2023-03-13T09:11:14.082Z,12.91
2023-03-13T09:13:44.626Z,12.86
2023-03-13T09:16:13.834Z,12.92
2023-03-13T09:18:41.274Z,12.97
2023-03-13T09:21:09.931Z,13.06
2023-03-13T09:23:37.036Z,13.13
2023-03-13T09:26:04.141Z,13.18
2023-03-13T09:28:31.294Z,13.23
2023-03-13T09:31:06.896Z,13.28
2023-03-13T09:33:34.086Z,13.33
2023-03-13T09:36:00.891Z,13.39
2023-03-13T09:38:27.999Z,13.41
2023-03-13T09:41:05.699Z,13.38
2023-03-13T09:43:40.971Z,13.38
2023-03-13T09:46:12.339Z,13.50
2023-03-13T09:48:41.962Z,13.54
2023-03-13T09:51:13.815Z,13.59
2023-03-13T09:53:43.316Z,13.61
2023-03-13T09:56:31.261Z,13.67
2023-03-13T09:59:00.638Z,13.72
2023-03-13T10:01:29.840Z,13.72
2023-03-13T10:04:18.599Z,13.76
2023-03-13T10:06:45.401Z,13.81
2023-03-13T10:09:26.570Z,13.85
2023-03-13T10:11:56.549Z,13.92
2023-03-13T10:14:31.949Z,13.92
2023-03-13T10:17:22.424Z,13.97
2023-03-13T10:19:55.795Z,14.00
2023-03-13T10:22:26.126Z,14.05
2023-03-13T10:24:58.826Z,14.05
2023-03-13T10:27:25.686Z,14.09
2023-03-13T10:29:52.835Z,14.09
2023-03-13T10:32:20.817Z,14.19
2023-03-13T10:34:57.238Z,14.22
2023-03-13T10:37:40.405Z,14.22
2023-03-13T10:40:20.350Z,14.21
2023-03-13T10:42:47.130Z,14.30
2023-03-13T10:45:16.497Z,14.31
2023-03-13T10:47:43.341Z,14.35
2023-03-13T10:50:24.553Z,14.35
2023-03-13T10:52:51.377Z,14.38
2023-03-13T10:55:20.298Z,14.35
2023-03-13T10:58:00.910Z,14.39
2023-03-13T11:00:34.963Z,14.40
2023-03-13T11:03:18.585Z,14.32
2023-03-13T11:05:58.056Z,14.36
2023-03-13T11:08:26.392Z,14.38
2023-03-13T11:11:00.466Z,14.42
2023-03-13T11:13:37.262Z,14.44
2023-03-13T11:16:21.308Z,14.40
2023-03-13T11:18:54.286Z,14.42
2023-03-13T11:21:25.881Z,14.41
2023-03-13T11:24:04.642Z,14.40
2023-03-13T11:26:33.978Z,14.43
2023-03-13T11:29:04.723Z,14.46
2023-03-13T11:31:32.881Z,14.48
2023-03-13T11:34:12.852Z,14.47
2023-03-13T11:36:52.636Z,14.46
2023-03-13T11:39:37.777Z,14.40
2023-03-13T11:42:10.829Z,14.40
2023-03-13T11:44:46.900Z,14.43
2023-03-13T11:47:51.730Z,14.43
2023-03-13T11:50:24.510Z,14.39
2023-03-13T11:52:55.673Z,14.45
2023-03-13T11:55:46.329Z,14.47
2023-03-13T11:58:22.525Z,14.45
2023-03-13T12:01:03.122Z,14.48
2023-03-13T12:03:48.649Z,14.47
2023-03-13T12:06:28.247Z,14.41
2023-03-13T12:09:12.795Z,14.44
2023-03-13T12:11:43.838Z,14.44
2023-03-13T12:14:16.315Z,14.43
2023-03-13T12:16:49.225Z,14.41
2023-03-13T12:19:20.431Z,14.37
2023-03-13T12:21:49.852Z,14.34
2023-03-13T12:24:33.133Z,14.34
2023-03-13T12:27:02.693Z,14.25
2023-03-13T12:29:54.198Z,14.24
2023-03-13T12:32:38.863Z,14.24
2023-03-13T12:35:09.166Z,14.19
2023-03-13T12:37:50.558Z,14.25
2023-03-13T12:40:25.990Z,14.17
2023-03-13T12:43:05.363Z,14.16
2023-03-13T12:45:32.754Z,14.05
2023-03-13T12:48:22.040Z,14.02
2023-03-13T12:51:10.946Z,14.00
2023-03-13T12:53:37.802Z,13.95
2023-03-13T12:56:16.178Z,13.90
2023-03-13T12:58:50.114Z,13.87
2023-03-13T13:01:22.267Z,13.83
2023-03-13T13:03:52.788Z,13.82
2023-03-13T13:06:20.096Z,13.79
2023-03-13T13:08:53.095Z,13.79
2023-03-13T13:11:38.886Z,13.76
2023-03-13T13:14:11.679Z,13.72
2023-03-13T13:16:42.130Z,13.65
2023-03-13T13:19:40.698Z,13.66
2023-03-13T13:22:38.977Z,13.67
2023-03-13T13:25:18.223Z,13.57
2023-03-13T13:27:46.184Z,13.59
2023-03-13T13:30:18.909Z,13.53
2023-03-13T13:32:50.284Z,13.55
2023-03-13T13:35:31.118Z,13.45
2023-03-13T13:38:20.122Z,13.48
2023-03-13T13:41:11.783Z,13.45
2023-03-13T13:43:42.992Z,13.43
2023-03-13T13:46:23.278Z,13.41
2023-03-13T13:49:05.829Z,13.40
2023-03-13T13:51:42.400Z,13.38
2023-03-13T13:54:12.537Z,13.38
2023-03-13T13:56:42.443Z,13.36
2023-03-13T13:59:22.739Z,13.33
2023-03-13T14:01:50.766Z,13.31
2023-03-13T14:04:28.578Z,13.28
2023-03-13T14:06:55.940Z,13.25
2023-03-13T14:09:47.407Z,13.26
2023-03-13T14:12:25.121Z,13.29
2023-03-13T14:15:20.586Z,13.25
2023-03-13T14:17:51.589Z,13.27
2023-03-13T14:20:24.596Z,13.22
2023-03-13T14:22:51.554Z,13.25
2023-03-13T14:25:18.691Z,13.24
2023-03-13T14:27:46.180Z,13.25
2023-03-13T14:30:14.960Z,13.27
2023-03-13T14:32:41.778Z,13.24
2023-03-13T14:35:10.650Z,13.26
2023-03-13T14:37:47.864Z,13.26
2023-03-13T14:40:17.951Z,13.26
2023-03-13T14:42:50.145Z,13.20
2023-03-13T14:45:24.321Z,13.18
2023-03-13T14:47:51.893Z,13.20
2023-03-13T14:50:18.982Z,13.22
2023-03-13T14:52:49.078Z,13.24
2023-03-13T14:55:22.564Z,13.23
2023-03-13T14:57:57.083Z,13.26
2023-03-13T15:00:40.308Z,13.29
2023-03-13T15:03:21.411Z,13.28
2023-03-13T15:06:10.256Z,13.27
2023-03-13T15:08:44.812Z,13.30
2023-03-13T15:11:20.298Z,13.29
2023-03-13T15:13:47.177Z,13.29
2023-03-13T15:16:16.385Z,13.27
2023-03-13T15:18:43.211Z,13.30
2023-03-13T15:21:12.999Z,13.31
2023-03-13T15:23:47.297Z,13.30
2023-03-13T15:26:14.406Z,13.32
2023-03-13T15:28:41.227Z,13.33
2023-03-13T15:31:10.545Z,13.35
2023-03-13T15:33:37.308Z,13.34
2023-03-13T15:36:04.851Z,13.33
2023-03-13T15:38:31.770Z,13.34
2023-03-13T15:40:58.898Z,13.36
2023-03-13T15:43:26.268Z,13.38
2023-03-13T15:45:53.436Z,13.39
2023-03-13T15:48:28.074Z,13.36
2023-03-13T15:50:58.473Z,13.34
2023-03-13T15:53:26.082Z,13.35
2023-03-13T15:55:54.144Z,13.36
2023-03-13T15:58:21.063Z,13.36
2023-03-13T16:00:51.049Z,13.36
2023-03-13T16:03:24.840Z,13.36
2023-03-13T16:05:52.572Z,13.39
2023-03-13T16:08:34.731Z,13.39
2023-03-13T16:11:02.580Z,13.37
2023-03-13T16:13:29.543Z,13.38
2023-03-13T16:15:56.796Z,13.36
2023-03-13T16:18:24.134Z,13.35
2023-03-13T16:20:51.877Z,13.36
2023-03-13T16:23:18.715Z,13.39
2023-03-13T16:25:46.096Z,13.36
2023-03-13T16:28:13.308Z,13.39
2023-03-13T16:30:41.542Z,13.39
2023-03-13T16:33:08.411Z,13.37
2023-03-13T16:35:35.662Z,13.39
2023-03-13T16:38:02.762Z,13.39
2023-03-13T16:40:31.913Z,13.41
2023-03-13T16:42:58.765Z,13.40
2023-03-13T16:45:26.018Z,13.35
2023-03-13T16:47:53.503Z,13.41
2023-03-13T16:50:25.097Z,13.40
2023-03-13T16:52:52.111Z,13.42
2023-03-13T16:55:19.424Z,13.37
2023-03-13T16:57:46.329Z,13.34
2023-03-13T17:00:21.481Z,13.34
2023-03-13T17:02:48.738Z,13.34
2023-03-13T17:05:16.217Z,13.33
2023-03-13T17:07:44.624Z,13.40
2023-03-13T17:10:25.083Z,13.49
2023-03-13T17:12:51.977Z,13.54
2023-03-13T17:15:20.184Z,13.58
2023-03-13T17:17:51.895Z,13.61
2023-03-13T17:20:21.164Z,13.62
2023-03-13T17:22:47.945Z,13.57
2023-03-13T17:25:15.201Z,13.47
2023-03-13T17:27:42.901Z,13.47
2023-03-13T17:30:22.832Z,13.43
2023-03-13T17:32:50.328Z,13.41
2023-03-13T17:35:17.732Z,13.41
2023-03-13T17:37:45.032Z,13.40
2023-03-13T17:40:23.255Z,13.36
2023-03-13T17:42:50.267Z,13.37
2023-03-13T17:45:17.782Z,13.39
2023-03-13T17:47:44.694Z,13.33
2023-03-13T17:50:16.308Z,13.34
2023-03-13T17:52:43.189Z,13.33
2023-03-13T17:55:10.566Z,13.33
2023-03-13T17:57:37.585Z,13.30
2023-03-13T18:00:09.418Z,13.28
2023-03-13T18:02:36.755Z,13.34
2023-03-13T18:05:04.382Z,13.32
2023-03-13T18:07:31.194Z,13.33
2023-03-13T18:09:58.265Z,13.30
2023-03-13T18:12:25.114Z,13.32
2023-03-13T18:14:52.190Z,13.30
2023-03-13T18:17:20.736Z,13.27
2023-03-13T18:19:48.191Z,13.29
2023-03-13T18:22:19.616Z,13.29
2023-03-13T18:24:46.796Z,13.26
2023-03-13T18:27:15.959Z,13.27
2023-03-13T18:29:43.593Z,13.26
2023-03-13T18:32:11.143Z,13.26
2023-03-13T18:34:38.372Z,13.26
2023-03-13T18:37:11.418Z,13.23
2023-03-13T18:39:38.569Z,13.22
2023-03-13T18:42:07.082Z,13.21
2023-03-13T18:44:34.179Z,13.18
2023-03-13T18:47:00.967Z,13.21
2023-03-13T18:49:28.037Z,13.24
2023-03-13T18:51:54.828Z,13.18
2023-03-13T18:54:21.902Z,13.20
2023-03-13T18:56:48.701Z,13.20
2023-03-13T18:59:18.382Z,13.18
2023-03-13T19:01:47.141Z,13.17
2023-03-13T19:04:15.590Z,13.19
2023-03-13T19:06:42.543Z,13.17
2023-03-13T19:09:42.668Z,13.17
2023-03-13T19:12:11.628Z,13.16
2023-03-13T19:14:38.916Z,13.13
2023-03-13T19:17:07.192Z,13.12
2023-03-13T19:19:34.471Z,13.12
2023-03-13T19:22:02.117Z,13.11
2023-03-13T19:24:29.312Z,13.13
2023-03-13T19:26:59.174Z,13.10
2023-03-13T19:29:27.662Z,13.10
2023-03-13T19:31:59.213Z,13.10
2023-03-13T19:34:26.321Z,13.08
2023-03-13T19:36:53.476Z,13.06
2023-03-13T19:39:23.659Z,13.09
2023-03-13T19:41:50.763Z,13.07
2023-03-13T19:44:18.455Z,13.07
2023-03-13T19:46:45.648Z,13.08
2023-03-13T19:49:14.410Z,13.06
2023-03-13T19:51:41.282Z,13.07
2023-03-13T19:54:10.794Z,13.06
2023-03-13T19:56:39.252Z,13.07
2023-03-13T19:59:20.303Z,13.09
2023-03-13T20:01:47.237Z,13.07
2023-03-13T20:04:14.432Z,13.07
2023-03-13T20:06:41.514Z,13.04
2023-03-13T20:09:10.444Z,13.04
2023-03-13T20:11:37.370Z,13.05
2023-03-13T20:14:04.789Z,13.06
2023-03-13T20:16:33.716Z,13.02
2023-03-13T20:19:01.516Z,13.03
2023-03-13T20:21:33.533Z,13.01
2023-03-13T20:24:00.643Z,12.99
2023-03-13T20:26:28.086Z,13.01
2023-03-13T20:28:55.447Z,12.99
2023-03-13T20:31:24.162Z,13.01
2023-03-13T20:33:51.526Z,12.97
2023-03-13T20:36:19.632Z,12.94
2023-03-13T20:38:47.007Z,12.93
2023-03-13T20:41:14.213Z,12.91
2023-03-13T20:43:41.334Z,12.92
2023-03-13T20:46:08.329Z,12.91
2023-03-13T20:48:37.108Z,12.91
2023-03-13T20:51:04.099Z,12.89
2023-03-13T20:53:31.238Z,12.89
2023-03-13T20:55:58.362Z,12.89
2023-03-13T20:58:25.523Z,12.88
2023-03-13T21:00:52.470Z,12.87
2023-03-13T21:03:19.619Z,12.86
2023-03-13T21:05:46.380Z,12.81
2023-03-13T21:08:13.726Z,12.80
2023-03-13T21:10:40.968Z,12.81
2023-03-13T21:13:09.139Z,12.81
2023-03-13T21:15:36.063Z,12.80
2023-03-13T21:18:03.354Z,12.77
2023-03-13T21:20:30.166Z,12.78
2023-03-13T21:22:57.303Z,12.77
2023-03-13T21:25:24.174Z,12.73
2023-03-13T21:27:51.320Z,12.75
2023-03-13T21:30:19.943Z,12.72
2023-03-13T21:32:47.610Z,12.71
2023-03-13T21:35:14.641Z,12.70
2023-03-13T21:37:41.869Z,12.67
2023-03-13T21:40:09.690Z,12.68
2023-03-13T21:42:38.680Z,12.65
2023-03-13T21:45:06.086Z,12.64
2023-03-13T21:47:36.981Z,12.64
2023-03-13T21:50:05.636Z,12.61
2023-03-13T21:52:38.149Z,12.60
2023-03-13T21:55:08.390Z,12.59
2023-03-13T21:57:36.817Z,12.56
2023-03-13T22:00:06.411Z,12.55
2023-03-13T22:02:34.693Z,12.50
2023-03-13T22:05:02.546Z,12.48
2023-03-13T22:07:30.936Z,12.49
2023-03-13T22:09:58.134Z,12.44
2023-03-13T22:12:25.711Z,12.41
2023-03-13T22:14:52.833Z,12.43
2023-03-13T22:17:20.439Z,12.38
2023-03-13T22:19:47.261Z,12.42
2023-03-13T22:22:14.902Z,12.43
2023-03-13T22:24:41.704Z,12.39
2023-03-13T22:27:11.584Z,12.37
2023-03-13T22:29:38.418Z,12.36
2023-03-13T22:32:05.625Z,12.36
2023-03-13T22:34:32.446Z,12.39
2023-03-13T22:36:59.644Z,12.35
2023-03-13T22:39:26.438Z,12.38
2023-03-13T22:41:53.535Z,12.34
2023-03-13T22:44:21.633Z,12.34
2023-03-13T22:46:48.755Z,12.33
2023-03-13T22:49:15.576Z,12.32
2023-03-13T22:51:42.629Z,12.29
2023-03-13T22:54:09.423Z,12.30
2023-03-13T22:56:36.878Z,12.27
2023-03-13T22:59:03.749Z,12.28
2023-03-13T23:01:30.924Z,12.26
2023-03-13T23:03:57.747Z,12.24
2023-03-13T23:06:25.577Z,12.25
2023-03-13T23:08:52.617Z,12.24
2023-03-13T23:11:20.096Z,12.26
2023-03-13T23:13:47.045Z,12.27
2023-03-13T23:16:14.818Z,12.27
2023-03-13T23:18:41.854Z,12.27
2023-03-13T23:21:10.851Z,12.26
2023-03-13T23:23:37.887Z,12.23
2023-03-13T23:26:06.734Z,12.24
2023-03-13T23:28:34.533Z,12.23
2023-03-13T23:31:19.057Z,12.23
2023-03-13T23:33:46.177Z,12.22
2023-03-13T23:36:15.220Z,12.22
2023-03-13T23:38:42.212Z,12.22
2023-03-13T23:41:10.930Z,12.18
2023-03-13T23:43:37.825Z,12.21
2023-03-13T23:46:05.329Z,12.17
2023-03-13T23:48:32.180Z,12.15
2023-03-13T23:50:59.275Z,12.14
2023-03-13T23:53:26.065Z,12.13
2023-03-13T23:55:58.324Z,12.09
2023-03-13T23:58:25.294Z,12.06
